VLG2AT LEVC-LEZL

Flight info

Callsign VLG2AT
Flight time 1h 9m
Altitude 37000
Route ASTRO M985 MAMIS
Aircraft A320/M-SDE3FGHIRWY/LB1

Departure

Time 2026-05-05 16:33
Airport Valencia Airport (LEVC)

Arrival

Time 2026-05-05 17:42
Airport Seville Airport (LEZL)
Time Latitude Longitude Altitude Speed Heading
2026-05-05 16:22 39.48951 -0.47352 209 ft 0 kts 116°
2026-05-05 16:27 39.48946 -0.47339 203 ft 5 kts 116°
2026-05-05 16:27 39.48918 -0.47270 199 ft 12 kts 122°
2026-05-05 16:27 39.48848 -0.47217 194 ft 12 kts 161°
2026-05-05 16:27 39.48761 -0.47166 194 ft 16 kts 141°
2026-05-05 16:28 39.48698 -0.47023 189 ft 16 kts 115°
2026-05-05 16:28 39.48641 -0.46875 182 ft 19 kts 117°
2026-05-05 16:28 39.48599 -0.46789 179 ft 0 kts 133°
2026-05-05 16:31 39.48598 -0.46787 179 ft 2 kts 133°
2026-05-05 16:31 39.48559 -0.46746 179 ft 12 kts 153°
2026-05-05 16:31 39.48466 -0.46786 182 ft 16 kts 236°
2026-05-05 16:32 39.48463 -0.46920 196 ft 15 kts 286°
2026-05-05 16:32 39.48541 -0.47137 196 ft 53 kts 296°
2026-05-05 16:32 39.48794 -0.47799 212 ft 108 kts 297°
2026-05-05 16:32 39.49195 -0.48854 240 ft 150 kts 295°
2026-05-05 16:33 39.49685 -0.50141 620 ft 163 kts 296°
2026-05-05 16:33 39.50217 -0.51442 1242 ft 161 kts 296°
2026-05-05 16:33 39.50763 -0.52763 1700 ft 171 kts 297°
2026-05-05 16:33 39.51330 -0.54144 2300 ft 174 kts 296°
2026-05-05 16:34 39.51896 -0.55517 2994 ft 171 kts 297°
2026-05-05 16:34 39.52458 -0.56840 3716 ft 165 kts 296°
2026-05-05 16:34 39.52825 -0.57697 4124 ft 164 kts 296°
2026-05-05 16:34 39.52995 -0.58094 4314 ft 164 kts 296°
2026-05-05 16:35 39.53318 -0.58846 4709 ft 166 kts 296°
2026-05-05 16:35 39.53876 -0.60152 5321 ft 165 kts 296°
2026-05-05 16:35 39.54232 -0.61581 5743 ft 173 kts 268°
2026-05-05 16:35 39.53882 -0.63104 6108 ft 185 kts 245°
2026-05-05 16:36 39.53296 -0.64692 6416 ft 206 kts 246°
2026-05-05 16:36 39.52667 -0.66423 6800 ft 217 kts 246°
2026-05-05 16:36 39.52025 -0.68193 6886 ft 218 kts 246°
2026-05-05 16:36 39.51381 -0.69970 6892 ft 218 kts 246°
2026-05-05 16:37 39.50737 -0.71745 6889 ft 218 kts 247°
2026-05-05 16:37 39.50098 -0.73503 7131 ft 214 kts 246°
2026-05-05 16:37 39.49419 -0.75236 7837 ft 218 kts 236°
2026-05-05 16:37 39.48332 -0.76616 8580 ft 222 kts 223°
2026-05-05 16:38 39.47138 -0.77912 9299 ft 225 kts 223°
2026-05-05 16:38 39.45934 -0.79220 10031 ft 227 kts 223°
2026-05-05 16:38 39.44725 -0.80535 10764 ft 228 kts 223°
2026-05-05 16:38 39.43505 -0.81866 11455 ft 230 kts 224°
2026-05-05 16:39 39.42282 -0.83199 12173 ft 231 kts 224°
2026-05-05 16:39 39.41031 -0.84562 12899 ft 233 kts 224°
2026-05-05 16:39 39.39788 -0.85917 13621 ft 234 kts 225°
2026-05-05 16:39 39.38537 -0.87281 14217 ft 236 kts 225°
2026-05-05 16:40 39.37279 -0.88646 14877 ft 236 kts 225°
2026-05-05 16:40 39.36026 -0.90004 15553 ft 235 kts 225°
2026-05-05 16:40 39.34773 -0.91363 16225 ft 234 kts 225°
2026-05-05 16:40 39.33526 -0.92719 16779 ft 239 kts 225°
2026-05-05 16:41 39.32366 -0.93982 17200 ft 242 kts 225°
2026-05-05 16:41 39.31044 -0.95419 17554 ft 256 kts 225°
2026-05-05 16:41 39.29650 -0.96940 17789 ft 270 kts 225°
2026-05-05 16:41 39.28174 -0.98550 18017 ft 285 kts 224°
2026-05-05 16:42 39.26618 -1.00244 18239 ft 300 kts 224°
2026-05-05 16:42 39.24985 -1.02017 18406 ft 315 kts 224°
2026-05-05 16:42 39.23268 -1.03876 18629 ft 328 kts 224°
2026-05-05 16:42 39.21494 -1.05795 18893 ft 340 kts 224°
2026-05-05 16:43 39.19652 -1.07783 19183 ft 351 kts 224°
2026-05-05 16:43 39.17744 -1.09839 19403 ft 364 kts 223°
2026-05-05 16:43 39.15774 -1.11958 19754 ft 370 kts 223°
2026-05-05 16:43 39.13808 -1.14065 20490 ft 366 kts 223°
2026-05-05 16:44 39.11861 -1.16151 21213 ft 362 kts 224°
2026-05-05 16:44 39.09932 -1.18228 21846 ft 361 kts 224°
2026-05-05 16:44 39.08015 -1.20296 22467 ft 359 kts 224°
2026-05-05 16:44 39.06102 -1.22355 23065 ft 358 kts 224°
2026-05-05 16:45 39.04195 -1.24404 23670 ft 356 kts 224°
2026-05-05 16:45 39.02314 -1.26467 24207 ft 353 kts 229°
2026-05-05 16:45 39.00842 -1.28953 24787 ft 344 kts 244°
2026-05-05 16:45 38.99893 -1.31739 25315 ft 342 kts 248°
2026-05-05 16:46 38.98992 -1.34567 25832 ft 341 kts 248°
2026-05-05 16:46 38.98107 -1.37385 26360 ft 339 kts 248°
2026-05-05 16:46 38.97230 -1.40198 26903 ft 338 kts 248°
2026-05-05 16:46 38.96642 -1.42087 27265 ft 337 kts 248°
2026-05-05 16:47 38.95774 -1.44873 27811 ft 335 kts 248°
2026-05-05 16:47 38.94910 -1.47639 28378 ft 333 kts 248°
2026-05-05 16:47 38.94051 -1.50390 28928 ft 331 kts 248°
2026-05-05 16:47 38.93196 -1.53126 29481 ft 329 kts 248°
2026-05-05 16:48 38.92345 -1.55843 30023 ft 327 kts 248°
2026-05-05 16:48 38.91497 -1.58542 30482 ft 325 kts 248°
2026-05-05 16:48 38.90651 -1.61226 30918 ft 324 kts 248°
2026-05-05 16:48 38.89806 -1.63905 31346 ft 323 kts 248°
2026-05-05 16:49 38.88964 -1.66568 31760 ft 322 kts 248°
2026-05-05 16:49 38.88123 -1.69222 32170 ft 321 kts 248°
2026-05-05 16:49 38.87287 -1.71870 32554 ft 320 kts 248°
2026-05-05 16:49 38.86452 -1.74512 32922 ft 319 kts 248°
2026-05-05 16:50 38.85619 -1.77146 33282 ft 318 kts 248°
2026-05-05 16:50 38.84786 -1.79772 33631 ft 317 kts 248°
2026-05-05 16:50 38.83957 -1.82391 33957 ft 317 kts 248°
2026-05-05 16:50 38.83128 -1.85009 34221 ft 316 kts 248°
2026-05-05 16:51 38.82298 -1.87622 34384 ft 319 kts 248°
2026-05-05 16:51 38.81452 -1.90283 34513 ft 323 kts 248°
2026-05-05 16:51 38.80598 -1.92965 34622 ft 327 kts 248°
2026-05-05 16:51 38.79733 -1.95679 34739 ft 331 kts 248°
2026-05-05 16:52 38.78847 -1.98454 34861 ft 334 kts 248°
2026-05-05 16:52 38.77963 -2.01224 34985 ft 338 kts 248°
2026-05-05 16:52 38.77069 -2.04024 35106 ft 341 kts 248°
2026-05-05 16:52 38.76167 -2.06847 35225 ft 344 kts 248°
2026-05-05 16:53 38.75256 -2.09695 35353 ft 347 kts 248°
2026-05-05 16:53 38.74337 -2.12562 35475 ft 351 kts 248°
2026-05-05 16:53 38.73406 -2.15460 35592 ft 354 kts 248°
2026-05-05 16:53 38.72465 -2.18390 35712 ft 357 kts 248°
2026-05-05 16:54 38.71521 -2.21334 35840 ft 360 kts 248°
2026-05-05 16:54 38.70565 -2.24314 35966 ft 363 kts 248°
2026-05-05 16:54 38.69603 -2.27309 36081 ft 365 kts 248°
2026-05-05 16:54 38.68628 -2.30325 36215 ft 368 kts 248°
2026-05-05 16:55 38.67644 -2.33367 36337 ft 371 kts 248°
2026-05-05 16:55 38.66651 -2.36428 36465 ft 374 kts 248°
2026-05-05 16:55 38.65652 -2.39508 36590 ft 376 kts 248°
2026-05-05 16:55 38.64645 -2.42609 36719 ft 378 kts 248°
2026-05-05 16:56 38.63634 -2.45725 36874 ft 380 kts 248°
2026-05-05 16:56 38.62614 -2.48860 36945 ft 383 kts 248°
2026-05-05 16:56 38.60548 -2.55224 36948 ft 389 kts 248°
2026-05-05 16:57 38.58468 -2.61629 36946 ft 390 kts 248°
2026-05-05 16:57 38.56367 -2.68071 36949 ft 390 kts 248°
2026-05-05 16:58 38.54272 -2.74458 36949 ft 390 kts 248°
2026-05-05 16:58 38.52163 -2.80841 36949 ft 390 kts 248°
2026-05-05 16:59 38.50066 -2.87223 36946 ft 390 kts 248°
2026-05-05 16:59 38.47966 -2.93612 36948 ft 390 kts 248°
2026-05-05 17:00 38.45862 -2.99986 36942 ft 390 kts 248°
2026-05-05 17:00 38.43754 -3.06351 36947 ft 390 kts 248°
2026-05-05 17:01 38.41648 -3.12717 36944 ft 390 kts 248°
2026-05-05 17:01 38.39531 -3.19083 36944 ft 390 kts 248°
2026-05-05 17:02 38.37400 -3.25441 36943 ft 390 kts 248°
2026-05-05 17:02 38.35279 -3.31797 36941 ft 390 kts 248°
2026-05-05 17:03 38.33157 -3.38140 36934 ft 389 kts 248°
2026-05-05 17:03 38.31032 -3.44482 36941 ft 389 kts 248°
2026-05-05 17:04 38.28901 -3.50810 36949 ft 389 kts 248°
2026-05-05 17:04 38.26754 -3.57180 36943 ft 389 kts 248°
2026-05-05 17:05 38.24618 -3.63507 36938 ft 389 kts 248°
2026-05-05 17:05 38.22482 -3.69827 36934 ft 389 kts 248°
2026-05-05 17:06 38.20339 -3.76137 36936 ft 389 kts 248°
2026-05-05 17:06 38.18194 -3.82449 36933 ft 389 kts 248°
2026-05-05 17:07 38.16049 -3.88756 36935 ft 389 kts 248°
2026-05-05 17:07 38.13902 -3.95060 36932 ft 389 kts 248°
2026-05-05 17:08 38.11739 -4.01361 36935 ft 389 kts 248°
2026-05-05 17:08 38.09578 -4.07656 36933 ft 389 kts 248°
2026-05-05 17:09 38.07414 -4.13953 36935 ft 389 kts 248°
2026-05-05 17:09 38.05250 -4.20251 36933 ft 389 kts 248°
2026-05-05 17:10 38.03084 -4.26541 36937 ft 390 kts 248°
2026-05-05 17:10 38.00904 -4.32841 36938 ft 390 kts 248°
2026-05-05 17:11 37.98719 -4.39122 36937 ft 390 kts 248°
2026-05-05 17:11 37.96549 -4.45366 36921 ft 379 kts 248°
2026-05-05 17:12 37.95501 -4.48375 36787 ft 367 kts 248°
2026-05-05 17:12 37.94469 -4.51334 36660 ft 356 kts 248°
2026-05-05 17:12 37.93496 -4.54120 36542 ft 345 kts 248°
2026-05-05 17:12 37.92524 -4.56908 36179 ft 340 kts 248°
2026-05-05 17:13 37.91571 -4.59647 35675 ft 340 kts 248°
2026-05-05 17:13 37.90617 -4.62385 35186 ft 339 kts 248°
2026-05-05 17:13 37.89664 -4.65116 34702 ft 339 kts 248°
2026-05-05 17:13 37.88708 -4.67847 34232 ft 339 kts 248°
2026-05-05 17:14 37.87755 -4.70568 33735 ft 339 kts 248°
2026-05-05 17:14 37.86801 -4.73298 33182 ft 339 kts 248°
2026-05-05 17:14 37.85847 -4.76023 32668 ft 338 kts 248°
2026-05-05 17:14 37.84891 -4.78743 32140 ft 339 kts 248°
2026-05-05 17:15 37.83930 -4.81464 31627 ft 339 kts 248°
2026-05-05 17:15 37.82970 -4.84184 31127 ft 339 kts 248°
2026-05-05 17:15 37.82006 -4.86915 30632 ft 339 kts 248°
2026-05-05 17:15 37.81045 -4.89637 30146 ft 340 kts 248°
2026-05-05 17:16 37.80082 -4.92372 29594 ft 340 kts 248°
2026-05-05 17:16 37.79119 -4.95103 29042 ft 341 kts 248°
2026-05-05 17:16 37.78153 -4.97837 28491 ft 341 kts 248°
2026-05-05 17:16 37.77183 -5.00576 27949 ft 342 kts 248°
2026-05-05 17:17 37.76211 -5.03312 27420 ft 342 kts 248°
2026-05-05 17:17 37.75233 -5.06063 26900 ft 342 kts 248°
2026-05-05 17:17 37.74259 -5.08807 26396 ft 343 kts 248°
2026-05-05 17:17 37.73284 -5.11558 25896 ft 343 kts 248°
2026-05-05 17:18 37.72307 -5.14307 25405 ft 344 kts 248°
2026-05-05 17:18 37.71327 -5.17058 24925 ft 344 kts 248°
2026-05-05 17:18 37.70345 -5.19817 24452 ft 344 kts 248°
2026-05-05 17:18 37.69364 -5.22569 23979 ft 344 kts 248°
2026-05-05 17:19 37.68381 -5.25319 23519 ft 343 kts 248°
2026-05-05 17:19 37.67400 -5.28064 22973 ft 343 kts 248°
2026-05-05 17:19 37.66422 -5.30803 22434 ft 342 kts 248°
2026-05-05 17:19 37.65447 -5.33534 21906 ft 341 kts 248°
2026-05-05 17:20 37.64472 -5.36258 21387 ft 340 kts 248°
2026-05-05 17:20 37.63500 -5.38970 20877 ft 338 kts 248°
2026-05-05 17:20 37.62846 -5.40790 20538 ft 337 kts 248°
2026-05-05 17:20 37.61880 -5.43477 20031 ft 335 kts 248°
2026-05-05 17:21 37.60919 -5.46146 19543 ft 333 kts 248°
2026-05-05 17:21 37.59977 -5.48762 19071 ft 324 kts 248°
2026-05-05 17:21 37.59046 -5.51352 18600 ft 323 kts 248°
2026-05-05 17:22 37.57196 -5.56495 17584 ft 321 kts 248°
2026-05-05 17:22 37.56274 -5.59050 17065 ft 320 kts 248°
2026-05-05 17:22 37.55350 -5.61603 16539 ft 319 kts 247°
2026-05-05 17:22 37.54432 -5.64140 16049 ft 318 kts 248°
2026-05-05 17:23 37.53517 -5.66673 15545 ft 317 kts 248°
2026-05-05 17:23 37.52600 -5.69201 15055 ft 316 kts 247°
2026-05-05 17:23 37.51688 -5.71719 14571 ft 315 kts 247°
2026-05-05 17:23 37.50776 -5.74228 14086 ft 314 kts 247°
2026-05-05 17:24 37.49869 -5.76724 13614 ft 314 kts 247°
2026-05-05 17:24 37.48960 -5.79222 13081 ft 313 kts 247°
2026-05-05 17:24 37.48055 -5.81710 12567 ft 312 kts 247°
2026-05-05 17:24 37.47154 -5.84190 12055 ft 312 kts 247°
2026-05-05 17:25 37.46252 -5.86667 11554 ft 311 kts 247°
2026-05-05 17:25 37.45642 -5.88337 11216 ft 311 kts 247°
2026-05-05 17:25 37.44449 -5.91609 10565 ft 310 kts 246°
2026-05-05 17:25 37.43549 -5.94070 10103 ft 310 kts 246°
2026-05-05 17:26 37.42647 -5.96534 9589 ft 310 kts 246°
2026-05-05 17:26 37.41736 -5.99025 9053 ft 309 kts 248°
2026-05-05 17:26 37.41253 -6.01622 8535 ft 306 kts 270°
2026-05-05 17:26 37.41305 -6.04306 8020 ft 306 kts 272°
2026-05-05 17:27 37.41375 -6.06983 7521 ft 306 kts 272°
2026-05-05 17:27 37.41439 -6.09641 7020 ft 301 kts 272°
2026-05-05 17:27 37.41490 -6.12218 6535 ft 289 kts 272°
2026-05-05 17:27 37.41530 -6.14695 6034 ft 279 kts 272°
2026-05-05 17:28 37.41565 -6.17102 5528 ft 271 kts 272°
2026-05-05 17:28 37.41828 -6.19394 5018 ft 261 kts 293°
2026-05-05 17:28 37.42847 -6.21205 4520 ft 253 kts 320°
2026-05-05 17:28 37.44404 -6.22175 4010 ft 251 kts 347°
2026-05-05 17:29 37.46082 -6.21978 3757 ft 241 kts 24°
2026-05-05 17:29 37.47218 -6.20563 3611 ft 229 kts 65°
2026-05-05 17:29 37.47357 -6.18610 3371 ft 228 kts 104°
2026-05-05 17:29 37.46946 -6.16666 2976 ft 230 kts 93°
2026-05-05 17:30 37.47206 -6.14748 2743 ft 222 kts 65°
2026-05-05 17:30 37.47642 -6.12891 2485 ft 222 kts 89°
2026-05-05 17:30 37.47130 -6.11094 2697 ft 226 kts 137°
2026-05-05 17:30 37.45832 -6.10105 3142 ft 230 kts 155°
2026-05-05 17:31 37.44621 -6.08859 3025 ft 228 kts 122°
2026-05-05 17:31 37.43885 -6.07087 2969 ft 230 kts 117°
2026-05-05 17:31 37.42936 -6.05463 2975 ft 231 kts 134°
2026-05-05 17:31 37.42007 -6.03826 2975 ft 231 kts 110°
2026-05-05 17:32 37.41801 -6.02828 2981 ft 230 kts 94°
2026-05-05 17:32 37.41751 -6.00822 2969 ft 230 kts 88°
2026-05-05 17:32 37.41750 -5.98858 2972 ft 223 kts 88°
2026-05-05 17:32 37.41761 -5.96826 2972 ft 234 kts 88°
2026-05-05 17:33 37.41773 -5.94752 2976 ft 234 kts 87°
2026-05-05 17:33 37.41784 -5.92703 2978 ft 235 kts 88°
2026-05-05 17:33 37.41793 -5.90652 2977 ft 234 kts 88°
2026-05-05 17:33 37.41801 -5.88601 2976 ft 233 kts 88°
2026-05-05 17:34 37.41808 -5.86565 2972 ft 236 kts 88°
2026-05-05 17:34 37.41814 -5.84501 2810 ft 236 kts 87°
2026-05-05 17:34 37.41820 -5.82424 2700 ft 238 kts 88°
2026-05-05 17:34 37.41826 -5.80351 2659 ft 236 kts 88°
2026-05-05 17:35 37.41830 -5.78285 2597 ft 237 kts 88°
2026-05-05 17:35 37.41834 -5.76208 2547 ft 237 kts 89°
2026-05-05 17:35 37.41837 -5.74159 2492 ft 236 kts 88°
2026-05-05 17:35 37.41840 -5.72078 2439 ft 237 kts 89°
2026-05-05 17:36 37.41843 -5.70019 2382 ft 236 kts 88°
2026-05-05 17:36 37.41845 -5.67989 2338 ft 228 kts 88°
2026-05-05 17:36 37.42170 -5.66135 2291 ft 210 kts 52°
2026-05-05 17:36 37.43214 -5.65061 2231 ft 186 kts 14°
2026-05-05 17:37 37.44475 -5.64981 2185 ft 179 kts 340°
2026-05-05 17:37 37.45190 -5.65408 2127 ft 169 kts 318°
2026-05-05 17:37 37.46011 -5.67028 2085 ft 168 kts 281°
2026-05-05 17:37 37.45874 -5.68458 2009 ft 170 kts 241°
2026-05-05 17:38 37.45162 -5.69689 1983 ft 173 kts 240°
2026-05-05 17:38 37.44565 -5.70971 1990 ft 169 kts 243°
2026-05-05 17:38 37.43968 -5.72264 1986 ft 173 kts 242°
2026-05-05 17:38 37.43368 -5.73559 1989 ft 170 kts 243°
2026-05-05 17:39 37.42768 -5.74857 1953 ft 168 kts 242°
2026-05-05 17:39 37.42257 -5.76108 1827 ft 159 kts 253°
2026-05-05 17:39 37.41997 -5.77480 1655 ft 160 kts 263°
2026-05-05 17:39 37.41893 -5.78819 1477 ft 146 kts 268°
2026-05-05 17:40 37.41852 -5.80039 1265 ft 136 kts 270°
2026-05-05 17:40 37.41832 -5.81187 1094 ft 126 kts 271°
2026-05-05 17:40 37.41822 -5.82327 923 ft 128 kts 271°
2026-05-05 17:40 37.41815 -5.83414 766 ft 128 kts 270°
2026-05-05 17:41 37.41804 -5.84576 571 ft 133 kts 270°
2026-05-05 17:41 37.41805 -5.85750 427 ft 135 kts 271°
2026-05-05 17:41 37.41805 -5.86918 239 ft 132 kts 270°
2026-05-05 17:41 37.41802 -5.88073 115 ft 126 kts 268°
2026-05-05 17:42 37.41793 -5.88849 109 ft 56 kts 271°
2026-05-05 17:42 37.41815 -5.89224 105 ft 27 kts 320°
2026-05-05 17:42 37.41966 -5.89345 102 ft 27 kts 328°
2026-05-05 17:42 37.42105 -5.89514 101 ft 29 kts 313°
2026-05-05 17:43 37.42247 -5.89698 102 ft 24 kts 316°
2026-05-05 17:43 37.42269 -5.89760 100 ft 4 kts 215°
2026-05-05 17:43 37.42232 -5.89810 100 ft 8 kts 263°
2026-05-05 17:43 37.42288 -5.89844 99 ft 10 kts 344°
2026-05-05 17:44 37.42301 -5.89848 100 ft 0 kts 344°